sensor_id;sensor_type;location;lat;lon;timestamp;pressure;altitude;pressure_sealevel;temperature;humidity
53546;BME280;39432;51.902;10.844;2024-02-14T00:01:32;99685.34;;;7.36;100.00
53546;BME280;39432;51.902;10.844;2024-02-14T00:04:04;99686.59;;;7.34;100.00
53546;BME280;39432;51.902;10.844;2024-02-14T00:06:35;99681.41;;;7.68;100.00
53546;BME280;39432;51.902;10.844;2024-02-14T00:09:05;99660.47;;;7.56;100.00
53546;BME280;39432;51.902;10.844;2024-02-14T00:11:36;99661.78;;;7.65;100.00
53546;BME280;39432;51.902;10.844;2024-02-14T00:14:06;99675.25;;;7.84;100.00
53546;BME280;39432;51.902;10.844;2024-02-14T00:16:39;99649.59;;;8.32;100.00
53546;BME280;39432;51.902;10.844;2024-02-14T00:19:09;99664.50;;;7.77;100.00
53546;BME280;39432;51.902;10.844;2024-02-14T00:21:39;99649.00;;;7.54;100.00
53546;BME280;39432;51.902;10.844;2024-02-14T00:24:09;99659.81;;;7.07;100.00
53546;BME280;39432;51.902;10.844;2024-02-14T00:26:39;99653.41;;;8.31;100.00
53546;BME280;39432;51.902;10.844;2024-02-14T00:29:09;99651.34;;;7.86;100.00
53546;BME280;39432;51.902;10.844;2024-02-14T00:31:41;99651.53;;;8.19;100.00
53546;BME280;39432;51.902;10.844;2024-02-14T00:34:15;99646.19;;;6.84;100.00
53546;BME280;39432;51.902;10.844;2024-02-14T00:36:45;99651.53;;;7.02;100.00
53546;BME280;39432;51.902;10.844;2024-02-14T00:39:15;99653.56;;;6.35;100.00
53546;BME280;39432;51.902;10.844;2024-02-14T00:41:46;99650.66;;;6.78;100.00
53546;BME280;39432;51.902;10.844;2024-02-14T00:44:16;99652.34;;;6.31;100.00
53546;BME280;39432;51.902;10.844;2024-02-14T00:46:49;99652.50;;;7.20;100.00
53546;BME280;39432;51.902;10.844;2024-02-14T00:49:19;99644.50;;;7.48;100.00
53546;BME280;39432;51.902;10.844;2024-02-14T00:51:49;99636.81;;;7.80;100.00
53546;BME280;39432;51.902;10.844;2024-02-14T00:54:19;99640.56;;;6.37;100.00
53546;BME280;39432;51.902;10.844;2024-02-14T00:56:49;99642.19;;;6.98;100.00
53546;BME280;39432;51.902;10.844;2024-02-14T00:59:19;99652.84;;;6.70;100.00
53546;BME280;39432;51.902;10.844;2024-02-14T01:01:51;99648.22;;;7.00;100.00
53546;BME280;39432;51.902;10.844;2024-02-14T01:04:21;99642.53;;;6.48;100.00
53546;BME280;39432;51.902;10.844;2024-02-14T01:06:51;99638.13;;;5.99;100.00
53546;BME280;39432;51.902;10.844;2024-02-14T01:09:21;99654.66;;;6.46;100.00
53546;BME280;39432;51.902;10.844;2024-02-14T01:11:51;99646.28;;;5.99;100.00
53546;BME280;39432;51.902;10.844;2024-02-14T01:14:21;99647.28;;;7.06;100.00
53546;BME280;39432;51.902;10.844;2024-02-14T01:16:53;99639.75;;;7.32;100.00
53546;BME280;39432;51.902;10.844;2024-02-14T01:19:24;99636.97;;;6.97;100.00
53546;BME280;39432;51.902;10.844;2024-02-14T01:21:56;99629.81;;;7.49;100.00
53546;BME280;39432;51.902;10.844;2024-02-14T01:24:26;99636.09;;;6.73;100.00
53546;BME280;39432;51.902;10.844;2024-02-14T01:26:57;99627.22;;;7.31;100.00
53546;BME280;39432;51.902;10.844;2024-02-14T01:29:27;99630.53;;;7.56;100.00
53546;BME280;39432;51.902;10.844;2024-02-14T01:31:59;99617.50;;;7.35;100.00
53546;BME280;39432;51.902;10.844;2024-02-14T01:34:31;99617.66;;;6.75;100.00
53546;BME280;39432;51.902;10.844;2024-02-14T01:37:01;99627.81;;;6.68;100.00
53546;BME280;39432;51.902;10.844;2024-02-14T01:39:31;99623.75;;;6.58;100.00
53546;BME280;39432;51.902;10.844;2024-02-14T01:42:01;99615.81;;;6.87;100.00
53546;BME280;39432;51.902;10.844;2024-02-14T01:44:34;99616.53;;;6.94;100.00
53546;BME280;39432;51.902;10.844;2024-02-14T01:47:07;99617.59;;;6.21;100.00
53546;BME280;39432;51.902;10.844;2024-02-14T01:49:37;99616.13;;;6.79;100.00
53546;BME280;39432;51.902;10.844;2024-02-14T01:52:11;99606.88;;;6.68;100.00
53546;BME280;39432;51.902;10.844;2024-02-14T01:54:45;99600.47;;;7.04;100.00
53546;BME280;39432;51.902;10.844;2024-02-14T01:57:15;99600.06;;;6.89;100.00
53546;BME280;39432;51.902;10.844;2024-02-14T01:59:46;99595.38;;;6.24;100.00
53546;BME280;39432;51.902;10.844;2024-02-14T02:02:20;99601.16;;;6.88;100.00
53546;BME280;39432;51.902;10.844;2024-02-14T02:04:50;99590.03;;;7.25;100.00
53546;BME280;39432;51.902;10.844;2024-02-14T02:07:20;99582.56;;;6.97;100.00
53546;BME280;39432;51.902;10.844;2024-02-14T02:09:49;99584.03;;;6.57;100.00
53546;BME280;39432;51.902;10.844;2024-02-14T02:12:19;99580.56;;;6.92;100.00
53546;BME280;39432;51.902;10.844;2024-02-14T02:15:12;99574.84;;;6.70;100.00
53546;BME280;39432;51.902;10.844;2024-02-14T02:18:05;99573.47;;;6.91;100.00
53546;BME280;39432;51.902;10.844;2024-02-14T02:20:56;99577.00;;;6.80;100.00
53546;BME280;39432;51.902;10.844;2024-02-14T02:23:28;99567.88;;;6.63;100.00
53546;BME280;39432;51.902;10.844;2024-02-14T02:25:58;99573.47;;;6.91;100.00
53546;BME280;39432;51.902;10.844;2024-02-14T02:28:48;99565.94;;;7.17;100.00
53546;BME280;39432;51.902;10.844;2024-02-14T02:31:20;99565.44;;;6.96;100.00
53546;BME280;39432;51.902;10.844;2024-02-14T02:33:50;99560.94;;;6.90;100.00
53546;BME280;39432;51.902;10.844;2024-02-14T02:36:20;99562.13;;;6.94;100.00
53546;BME280;39432;51.902;10.844;2024-02-14T02:39:14;99550.06;;;6.90;100.00
53546;BME280;39432;51.902;10.844;2024-02-14T02:42:04;99556.84;;;6.57;100.00
53546;BME280;39432;51.902;10.844;2024-02-14T02:44:56;99549.59;;;7.17;100.00
53546;BME280;39432;51.902;10.844;2024-02-14T02:47:46;99542.03;;;7.19;100.00
53546;BME280;39432;51.902;10.844;2024-02-14T02:50:39;99544.88;;;7.00;100.00
53546;BME280;39432;51.902;10.844;2024-02-14T02:53:27;99531.38;;;6.82;100.00
53546;BME280;39432;51.902;10.844;2024-02-14T02:56:20;99537.53;;;7.12;100.00
53546;BME280;39432;51.902;10.844;2024-02-14T02:58:54;99524.66;;;7.31;100.00
53546;BME280;39432;51.902;10.844;2024-02-14T03:01:24;99528.44;;;6.95;100.00
53546;BME280;39432;51.902;10.844;2024-02-14T03:04:17;99529.25;;;7.31;100.00
53546;BME280;39432;51.902;10.844;2024-02-14T03:07:10;99525.47;;;7.32;100.00
53546;BME280;39432;51.902;10.844;2024-02-14T03:10:00;99520.13;;;7.13;100.00
53546;BME280;39432;51.902;10.844;2024-02-14T03:12:53;99525.47;;;7.08;100.00
53546;BME280;39432;51.902;10.844;2024-02-14T03:15:42;99527.25;;;7.26;100.00
53546;BME280;39432;51.902;10.844;2024-02-14T03:18:15;99524.34;;;7.56;100.00
53546;BME280;39432;51.902;10.844;2024-02-14T03:20:45;99517.38;;;7.60;100.00
53546;BME280;39432;51.902;10.844;2024-02-14T03:23:17;99513.97;;;7.30;100.00
53546;BME280;39432;51.902;10.844;2024-02-14T03:25:46;99511.47;;;7.40;100.00
53546;BME280;39432;51.902;10.844;2024-02-14T03:28:21;99510.84;;;7.61;100.00
53546;BME280;39432;51.902;10.844;2024-02-14T03:30:51;99514.38;;;6.98;100.00
53546;BME280;39432;51.902;10.844;2024-02-14T03:33:24;99510.88;;;7.50;100.00
53546;BME280;39432;51.902;10.844;2024-02-14T03:35:56;99509.78;;;7.62;100.00
53546;BME280;39432;51.902;10.844;2024-02-14T03:38:26;99503.59;;;7.15;100.00
53546;BME280;39432;51.902;10.844;2024-02-14T03:40:58;99499.91;;;7.33;100.00
53546;BME280;39432;51.902;10.844;2024-02-14T03:43:31;99492.31;;;7.35;100.00
53546;BME280;39432;51.902;10.844;2024-02-14T03:46:00;99488.81;;;7.63;100.00
53546;BME280;39432;51.902;10.844;2024-02-14T03:48:32;99503.56;;;7.79;100.00
53546;BME280;39432;51.902;10.844;2024-02-14T03:51:03;99499.53;;;7.41;100.00
53546;BME280;39432;51.902;10.844;2024-02-14T03:53:33;99492.56;;;7.74;100.00
53546;BME280;39432;51.902;10.844;2024-02-14T03:56:05;99489.72;;;7.80;100.00
53546;BME280;39432;51.902;10.844;2024-02-14T03:58:39;99493.22;;;7.52;100.00
53546;BME280;39432;51.902;10.844;2024-02-14T04:01:09;99488.38;;;7.54;100.00
53546;BME280;39432;51.902;10.844;2024-02-14T04:03:39;99486.94;;;6.88;100.00
53546;BME280;39432;51.902;10.844;2024-02-14T04:06:09;99498.25;;;7.08;100.00
53546;BME280;39432;51.902;10.844;2024-02-14T04:08:40;99500.03;;;7.26;100.00
53546;BME280;39432;51.902;10.844;2024-02-14T04:11:10;99500.88;;;7.27;100.00
53546;BME280;39432;51.902;10.844;2024-02-14T04:13:43;99493.66;;;6.74;100.00
53546;BME280;39432;51.902;10.844;2024-02-14T04:16:13;99495.66;;;7.13;100.00
53546;BME280;39432;51.902;10.844;2024-02-14T04:18:51;99495.66;;;6.90;100.00
53546;BME280;39432;51.902;10.844;2024-02-14T04:21:22;99502.06;;;6.84;100.00
53546;BME280;39432;51.902;10.844;2024-02-14T04:23:52;99495.53;;;7.32;100.00
53546;BME280;39432;51.902;10.844;2024-02-14T04:26:22;99490.19;;;7.49;100.00
53546;BME280;39432;51.902;10.844;2024-02-14T04:28:56;99475.44;;;7.21;100.00
53546;BME280;39432;51.902;10.844;2024-02-14T04:31:26;99473.56;;;6.75;100.00
53546;BME280;39432;51.902;10.844;2024-02-14T04:34:02;99470.06;;;7.38;100.00
53546;BME280;39432;51.902;10.844;2024-02-14T04:36:35;99475.84;;;7.42;100.00
53546;BME280;39432;51.902;10.844;2024-02-14T04:39:06;99473.13;;;7.53;100.00
53546;BME280;39432;51.902;10.844;2024-02-14T04:41:36;99451.16;;;7.72;100.00
53546;BME280;39432;51.902;10.844;2024-02-14T04:44:25;99463.19;;;7.47;100.00
53546;BME280;39432;51.902;10.844;2024-02-14T04:46:55;99463.13;;;7.71;100.00
53546;BME280;39432;51.902;10.844;2024-02-14T04:49:26;99463.53;;;7.79;100.00
53546;BME280;39432;51.902;10.844;2024-02-14T04:51:57;99460.56;;;7.52;100.00
53546;BME280;39432;51.902;10.844;2024-02-14T04:54:27;99449.72;;;7.69;100.00
53546;BME280;39432;51.902;10.844;2024-02-14T04:56:57;99461.56;;;8.03;100.00
53546;BME280;39432;51.902;10.844;2024-02-14T04:59:32;99448.72;;;7.58;100.00
53546;BME280;39432;51.902;10.844;2024-02-14T05:02:02;99441.84;;;7.56;100.00
53546;BME280;39432;51.902;10.844;2024-02-14T05:04:32;99440.94;;;7.79;100.00
53546;BME280;39432;51.902;10.844;2024-02-14T05:07:05;99432.97;;;7.89;100.00
53546;BME280;39432;51.902;10.844;2024-02-14T05:09:36;99422.44;;;7.52;100.00
53546;BME280;39432;51.902;10.844;2024-02-14T05:12:06;99416.31;;;7.74;100.00
53546;BME280;39432;51.902;10.844;2024-02-14T05:14:40;99422.06;;;7.89;100.00
53546;BME280;39432;51.902;10.844;2024-02-14T05:17:10;99430.44;;;7.71;100.00
53546;BME280;39432;51.902;10.844;2024-02-14T05:19:41;99430.50;;;8.04;100.00
53546;BME280;39432;51.902;10.844;2024-02-14T05:22:11;99433.00;;;8.23;100.00
53546;BME280;39432;51.902;10.844;2024-02-14T05:24:41;99407.56;;;8.34;100.00
53546;BME280;39432;51.902;10.844;2024-02-14T05:27:11;99408.72;;;8.21;100.00
53546;BME280;39432;51.902;10.844;2024-02-14T05:29:44;99426.44;;;7.90;100.00
53546;BME280;39432;51.902;10.844;2024-02-14T05:32:13;99421.34;;;8.10;100.00
53546;BME280;39432;51.902;10.844;2024-02-14T05:34:43;99411.81;;;7.96;100.00
53546;BME280;39432;51.902;10.844;2024-02-14T05:37:13;99403.31;;;7.76;100.00
53546;BME280;39432;51.902;10.844;2024-02-14T05:39:43;99410.09;;;7.90;100.00
53546;BME280;39432;51.902;10.844;2024-02-14T05:42:13;99402.88;;;7.67;100.00
53546;BME280;39432;51.902;10.844;2024-02-14T05:44:45;99394.63;;;7.79;100.00
53546;BME280;39432;51.902;10.844;2024-02-14T05:47:15;99402.91;;;7.55;100.00
53546;BME280;39432;51.902;10.844;2024-02-14T05:49:46;99404.25;;;7.53;100.00
53546;BME280;39432;51.902;10.844;2024-02-14T05:52:16;99402.44;;;7.87;100.00
53546;BME280;39432;51.902;10.844;2024-02-14T05:54:46;99406.22;;;7.86;100.00
53546;BME280;39432;51.902;10.844;2024-02-14T05:57:15;99401.94;;;7.61;100.00
53546;BME280;39432;51.902;10.844;2024-02-14T05:59:48;99406.16;;;7.69;100.00
53546;BME280;39432;51.902;10.844;2024-02-14T06:02:18;99404.63;;;7.45;100.00
53546;BME280;39432;51.902;10.844;2024-02-14T06:04:48;99418.69;;;7.53;100.00
53546;BME280;39432;51.902;10.844;2024-02-14T06:07:18;99426.66;;;7.72;100.00
53546;BME280;39432;51.902;10.844;2024-02-14T06:09:48;99426.16;;;7.75;100.00
53546;BME280;39432;51.902;10.844;2024-02-14T06:12:18;99424.78;;;7.89;100.00
53546;BME280;39432;51.902;10.844;2024-02-14T06:14:50;99424.66;;;8.12;100.00
53546;BME280;39432;51.902;10.844;2024-02-14T06:17:20;99425.34;;;7.91;100.00
53546;BME280;39432;51.902;10.844;2024-02-14T06:19:50;99432.78;;;7.96;100.00
53546;BME280;39432;51.902;10.844;2024-02-14T06:22:20;99433.06;;;7.94;100.00
53546;BME280;39432;51.902;10.844;2024-02-14T06:24:50;99427.16;;;8.14;100.00
53546;BME280;39432;51.902;10.844;2024-02-14T06:27:20;99429.19;;;8.07;100.00
53546;BME280;39432;51.902;10.844;2024-02-14T06:29:53;99434.81;;;8.34;100.00
53546;BME280;39432;51.902;10.844;2024-02-14T06:32:24;99419.00;;;8.48;100.00
53546;BME280;39432;51.902;10.844;2024-02-14T06:34:54;99421.91;;;8.41;100.00
53546;BME280;39432;51.902;10.844;2024-02-14T06:37:24;99437.34;;;8.69;100.00
53546;BME280;39432;51.902;10.844;2024-02-14T06:39:54;99450.97;;;9.24;100.00
53546;BME280;39432;51.902;10.844;2024-02-14T06:42:23;99454.19;;;9.65;100.00
53546;BME280;39432;51.902;10.844;2024-02-14T06:44:56;99447.84;;;9.60;100.00
53546;BME280;39432;51.902;10.844;2024-02-14T06:47:26;99450.88;;;9.63;100.00
53546;BME280;39432;51.902;10.844;2024-02-14T06:49:57;99443.53;;;9.91;100.00
53546;BME280;39432;51.902;10.844;2024-02-14T06:52:28;99442.06;;;9.83;100.00
53546;BME280;39432;51.902;10.844;2024-02-14T06:54:57;99441.25;;;9.83;100.00
53546;BME280;39432;51.902;10.844;2024-02-14T06:57:27;99437.16;;;9.58;100.00
53546;BME280;39432;51.902;10.844;2024-02-14T07:00:00;99433.56;;;9.53;100.00
53546;BME280;39432;51.902;10.844;2024-02-14T07:02:35;99437.09;;;9.09;100.00
53546;BME280;39432;51.902;10.844;2024-02-14T07:05:05;99439.22;;;8.85;100.00
53546;BME280;39432;51.902;10.844;2024-02-14T07:07:40;99446.25;;;8.81;100.00
53546;BME280;39432;51.902;10.844;2024-02-14T07:10:10;99448.31;;;8.91;100.00
53546;BME280;39432;51.902;10.844;2024-02-14T07:12:40;99454.03;;;8.39;100.00
53546;BME280;39432;51.902;10.844;2024-02-14T07:15:13;99459.97;;;8.69;100.00
53546;BME280;39432;51.902;10.844;2024-02-14T07:17:43;99460.69;;;8.98;100.00
53546;BME280;39432;51.902;10.844;2024-02-14T07:20:13;99461.59;;;9.04;100.00
53546;BME280;39432;51.902;10.844;2024-02-14T07:22:45;99450.22;;;8.90;100.00
53546;BME280;39432;51.902;10.844;2024-02-14T07:25:19;99460.47;;;8.66;100.00
53546;BME280;39432;51.902;10.844;2024-02-14T07:27:49;99475.63;;;8.57;100.00
53546;BME280;39432;51.902;10.844;2024-02-14T07:30:22;99481.63;;;8.59;100.00
53546;BME280;39432;51.902;10.844;2024-02-14T07:32:52;99476.84;;;8.50;100.00
53546;BME280;39432;51.902;10.844;2024-02-14T07:35:22;99484.41;;;8.31;100.00
53546;BME280;39432;51.902;10.844;2024-02-14T07:37:52;99491.41;;;8.27;100.00
53546;BME280;39432;51.902;10.844;2024-02-14T07:40:22;99482.28;;;8.50;100.00
53546;BME280;39432;51.902;10.844;2024-02-14T07:43:07;99487.75;;;8.50;100.00
53546;BME280;39432;51.902;10.844;2024-02-14T07:45:39;99484.09;;;8.44;100.00
53546;BME280;39432;51.902;10.844;2024-02-14T07:48:09;99492.38;;;8.49;100.00
53546;BME280;39432;51.902;10.844;2024-02-14T07:50:39;99490.56;;;8.55;100.00
53546;BME280;39432;51.902;10.844;2024-02-14T07:53:09;99492.38;;;8.83;100.00
53546;BME280;39432;51.902;10.844;2024-02-14T07:55:39;99488.81;;;8.65;100.00
53546;BME280;39432;51.902;10.844;2024-02-14T07:58:09;99481.28;;;8.73;100.00
53546;BME280;39432;51.902;10.844;2024-02-14T08:00:42;99487.75;;;8.66;100.00
53546;BME280;39432;51.902;10.844;2024-02-14T08:03:12;99494.34;;;8.37;100.00
53546;BME280;39432;51.902;10.844;2024-02-14T08:05:42;99490.31;;;8.28;100.00
53546;BME280;39432;51.902;10.844;2024-02-14T08:08:12;99507.66;;;8.50;100.00
53546;BME280;39432;51.902;10.844;2024-02-14T08:10:41;99505.25;;;8.37;100.00
53546;BME280;39432;51.902;10.844;2024-02-14T08:13:11;99497.91;;;8.88;100.00
53546;BME280;39432;51.902;10.844;2024-02-14T08:15:45;99499.47;;;8.50;100.00
53546;BME280;39432;51.902;10.844;2024-02-14T08:18:16;99491.81;;;8.81;100.00
53546;BME280;39432;51.902;10.844;2024-02-14T08:20:46;99503.78;;;8.63;100.00
53546;BME280;39432;51.902;10.844;2024-02-14T08:23:17;99503.34;;;9.05;100.00
53546;BME280;39432;51.902;10.844;2024-02-14T08:25:46;99500.63;;;8.88;100.00
53546;BME280;39432;51.902;10.844;2024-02-14T08:28:16;99517.31;;;9.08;100.00
53546;BME280;39432;51.902;10.844;2024-02-14T08:30:50;99505.81;;;9.06;100.00
53546;BME280;39432;51.902;10.844;2024-02-14T08:33:19;99515.34;;;8.87;100.00
53546;BME280;39432;51.902;10.844;2024-02-14T08:35:50;99509.00;;;8.81;100.00
53546;BME280;39432;51.902;10.844;2024-02-14T08:38:20;99516.09;;;8.82;100.00
53546;BME280;39432;51.902;10.844;2024-02-14T08:40:50;99522.44;;;9.05;100.00
53546;BME280;39432;51.902;10.844;2024-02-14T08:43:22;99518.69;;;9.28;100.00
53546;BME280;39432;51.902;10.844;2024-02-14T08:45:55;99513.81;;;9.30;100.00
53546;BME280;39432;51.902;10.844;2024-02-14T08:48:25;99512.81;;;9.36;100.00
53546;BME280;39432;51.902;10.844;2024-02-14T08:50:57;99510.91;;;9.36;100.00
53546;BME280;39432;51.902;10.844;2024-02-14T08:53:27;99523.63;;;9.47;100.00
53546;BME280;39432;51.902;10.844;2024-02-14T08:55:57;99522.22;;;9.45;100.00
53546;BME280;39432;51.902;10.844;2024-02-14T08:58:27;99522.91;;;9.35;100.00
53546;BME280;39432;51.902;10.844;2024-02-14T09:00:59;99533.50;;;9.32;100.00
53546;BME280;39432;51.902;10.844;2024-02-14T09:03:40;99539.84;;;9.37;100.00
53546;BME280;39432;51.902;10.844;2024-02-14T09:06:16;99544.22;;;9.38;100.00
53546;BME280;39432;51.902;10.844;2024-02-14T09:08:47;99551.53;;;9.33;100.00
53546;BME280;39432;51.902;10.844;2024-02-14T09:11:18;99555.59;;;9.30;100.00
53546;BME280;39432;51.902;10.844;2024-02-14T09:13:49;99557.66;;;9.40;100.00
53546;BME280;39432;51.902;10.844;2024-02-14T09:16:25;99555.22;;;9.43;100.00
53546;BME280;39432;51.902;10.844;2024-02-14T09:18:55;99565.91;;;9.45;100.00
53546;BME280;39432;51.902;10.844;2024-02-14T09:21:25;99568.38;;;9.46;100.00
53546;BME280;39432;51.902;10.844;2024-02-14T09:23:55;99560.56;;;9.55;100.00
53546;BME280;39432;51.902;10.844;2024-02-14T09:26:26;99564.97;;;9.56;100.00
53546;BME280;39432;51.902;10.844;2024-02-14T09:28:56;99574.81;;;9.57;100.00
53546;BME280;39432;51.902;10.844;2024-02-14T09:31:30;99572.91;;;9.58;100.00
53546;BME280;39432;51.902;10.844;2024-02-14T09:33:59;99570.47;;;9.61;100.00
53546;BME280;39432;51.902;10.844;2024-02-14T09:36:30;99566.69;;;9.62;100.00
53546;BME280;39432;51.902;10.844;2024-02-14T09:38:59;99557.44;;;9.63;100.00
53546;BME280;39432;51.902;10.844;2024-02-14T09:41:36;99556.47;;;9.74;100.00
53546;BME280;39432;51.902;10.844;2024-02-14T09:44:07;99564.47;;;9.81;100.00
53546;BME280;39432;51.902;10.844;2024-02-14T09:46:41;99551.84;;;9.75;100.00
53546;BME280;39432;51.902;10.844;2024-02-14T09:49:12;99562.13;;;9.90;100.00
53546;BME280;39432;51.902;10.844;2024-02-14T09:51:44;99570.50;;;10.05;100.00
53546;BME280;39432;51.902;10.844;2024-02-14T09:54:16;99576.88;;;10.33;100.00
53546;BME280;39432;51.902;10.844;2024-02-14T09:56:50;99564.66;;;10.18;100.00
53546;BME280;39432;51.902;10.844;2024-02-14T09:59:21;99559.84;;;10.25;100.00
53546;BME280;39432;51.902;10.844;2024-02-14T10:01:54;99560.00;;;10.41;100.00
53546;BME280;39432;51.902;10.844;2024-02-14T10:04:23;99567.19;;;10.47;100.00
53546;BME280;39432;51.902;10.844;2024-02-14T10:06:54;99559.84;;;10.52;100.00
53546;BME280;39432;51.902;10.844;2024-02-14T10:09:25;99568.38;;;10.56;100.00
53546;BME280;39432;51.902;10.844;2024-02-14T10:11:55;99556.81;;;10.49;100.00
53546;BME280;39432;51.902;10.844;2024-02-14T10:14:25;99558.41;;;10.45;100.00
53546;BME280;39432;51.902;10.844;2024-02-14T10:16:58;99563.78;;;10.35;100.00
53546;BME280;39432;51.902;10.844;2024-02-14T10:19:28;99564.94;;;10.39;100.00
53546;BME280;39432;51.902;10.844;2024-02-14T10:21:58;99574.31;;;10.48;100.00
53546;BME280;39432;51.902;10.844;2024-02-14T10:24:29;99573.81;;;10.51;100.00
53546;BME280;39432;51.902;10.844;2024-02-14T10:27:00;99573.38;;;10.37;100.00
53546;BME280;39432;51.902;10.844;2024-02-14T10:29:30;99569.09;;;10.46;100.00
53546;BME280;39432;51.902;10.844;2024-02-14T10:32:03;99568.59;;;10.49;100.00
53546;BME280;39432;51.902;10.844;2024-02-14T10:34:33;99580.81;;;10.42;100.00
53546;BME280;39432;51.902;10.844;2024-02-14T10:37:05;99585.00;;;10.49;100.00
53546;BME280;39432;51.902;10.844;2024-02-14T10:39:36;99585.44;;;10.41;100.00
53546;BME280;39432;51.902;10.844;2024-02-14T10:42:08;99595.88;;;10.44;100.00
53546;BME280;39432;51.902;10.844;2024-02-14T10:44:38;99602.38;;;10.65;100.00
53546;BME280;39432;51.902;10.844;2024-02-14T10:47:13;99601.97;;;10.78;100.00
53546;BME280;39432;51.902;10.844;2024-02-14T10:49:45;99608.44;;;10.94;100.00
53546;BME280;39432;51.902;10.844;2024-02-14T10:52:17;99611.41;;;11.25;100.00
53546;BME280;39432;51.902;10.844;2024-02-14T10:54:52;99598.13;;;11.44;100.00
53546;BME280;39432;51.902;10.844;2024-02-14T10:57:26;99599.03;;;11.54;100.00
53546;BME280;39432;51.902;10.844;2024-02-14T10:59:57;99590.88;;;11.70;100.00
53546;BME280;39432;51.902;10.844;2024-02-14T11:02:32;99594.56;;;11.85;100.00
53546;BME280;39432;51.902;10.844;2024-02-14T11:05:04;99591.19;;;11.73;100.00
53546;BME280;39432;51.902;10.844;2024-02-14T11:07:34;99585.25;;;11.86;100.00
53546;BME280;39432;51.902;10.844;2024-02-14T11:10:07;99591.94;;;12.11;100.00
53546;BME280;39432;51.902;10.844;2024-02-14T11:12:37;99592.09;;;11.84;100.00
53546;BME280;39432;51.902;10.844;2024-02-14T11:15:12;99586.16;;;11.55;100.00
53546;BME280;39432;51.902;10.844;2024-02-14T11:17:44;99601.19;;;11.90;100.00
53546;BME280;39432;51.902;10.844;2024-02-14T11:20:17;99598.97;;;11.81;100.00
53546;BME280;39432;51.902;10.844;2024-02-14T11:22:56;99599.03;;;12.02;100.00
53546;BME280;39432;51.902;10.844;2024-02-14T11:25:30;99590.78;;;11.97;100.00
53546;BME280;39432;51.902;10.844;2024-02-14T11:28:12;99588.72;;;12.29;100.00
53546;BME280;39432;51.902;10.844;2024-02-14T11:30:43;99588.97;;;12.18;100.00
53546;BME280;39432;51.902;10.844;2024-02-14T11:33:18;99587.13;;;12.38;100.00
53546;BME280;39432;51.902;10.844;2024-02-14T11:35:50;99590.88;;;12.17;100.00
53546;BME280;39432;51.902;10.844;2024-02-14T11:38:21;99589.19;;;12.06;100.00
53546;BME280;39432;51.902;10.844;2024-02-14T11:40:53;99590.28;;;12.05;100.00
53546;BME280;39432;51.902;10.844;2024-02-14T11:43:24;99595.44;;;11.96;100.00
53546;BME280;39432;51.902;10.844;2024-02-14T11:45:54;99594.31;;;11.92;100.00
53546;BME280;39432;51.902;10.844;2024-02-14T11:48:28;99595.78;;;12.10;100.00
53546;BME280;39432;51.902;10.844;2024-02-14T11:50:59;99609.56;;;12.25;100.00
53546;BME280;39432;51.902;10.844;2024-02-14T11:53:29;99604.06;;;12.20;100.00
53546;BME280;39432;51.902;10.844;2024-02-14T11:55:59;99595.03;;;12.30;100.00
53546;BME280;39432;51.902;10.844;2024-02-14T11:58:29;99595.41;;;12.59;100.00
53546;BME280;39432;51.902;10.844;2024-02-14T12:01:03;99584.31;;;12.23;100.00
53546;BME280;39432;51.902;10.844;2024-02-14T12:03:36;99592.03;;;12.31;100.00
53546;BME280;39432;51.902;10.844;2024-02-14T12:06:06;99583.66;;;11.96;100.00
53546;BME280;39432;51.902;10.844;2024-02-14T12:08:37;99581.97;;;11.90;100.00
53546;BME280;39432;51.902;10.844;2024-02-14T12:11:07;99588.47;;;11.78;100.00
53546;BME280;39432;51.902;10.844;2024-02-14T12:13:37;99586.25;;;11.75;100.00
53546;BME280;39432;51.902;10.844;2024-02-14T12:16:10;99601.34;;;11.78;100.00
53546;BME280;39432;51.902;10.844;2024-02-14T12:18:44;99595.75;;;12.00;100.00
53546;BME280;39432;51.902;10.844;2024-02-14T12:21:15;99591.31;;;11.89;100.00
53546;BME280;39432;51.902;10.844;2024-02-14T12:23:45;99600.66;;;11.93;100.00
53546;BME280;39432;51.902;10.844;2024-02-14T12:26:15;99607.13;;;11.76;100.00
53546;BME280;39432;51.902;10.844;2024-02-14T12:28:46;99607.13;;;11.76;100.00
53546;BME280;39432;51.902;10.844;2024-02-14T12:31:24;99612.06;;;11.79;100.00
53546;BME280;39432;51.902;10.844;2024-02-14T12:33:57;99615.97;;;11.89;100.00
53546;BME280;39432;51.902;10.844;2024-02-14T12:36:29;99628.84;;;11.83;100.00
53546;BME280;39432;51.902;10.844;2024-02-14T12:38:59;99632.94;;;11.85;100.00
53546;BME280;39432;51.902;10.844;2024-02-14T12:41:31;99624.09;;;11.73;100.00
53546;BME280;39432;51.902;10.844;2024-02-14T12:44:03;99624.00;;;11.63;100.00
53546;BME280;39432;51.902;10.844;2024-02-14T12:46:33;99637.06;;;11.83;100.00
53546;BME280;39432;51.902;10.844;2024-02-14T12:49:08;99633.22;;;11.84;100.00
53546;BME280;39432;51.902;10.844;2024-02-14T12:51:38;99628.59;;;11.90;100.00
53546;BME280;39432;51.902;10.844;2024-02-14T12:54:09;99631.34;;;11.90;100.00
53546;BME280;39432;51.902;10.844;2024-02-14T12:56:41;99626.97;;;11.94;100.00
53546;BME280;39432;51.902;10.844;2024-02-14T12:59:17;99625.38;;;12.08;100.00
53546;BME280;39432;51.902;10.844;2024-02-14T13:01:47;99628.19;;;12.23;100.00
53546;BME280;39432;51.902;10.844;2024-02-14T13:04:20;99625.69;;;12.11;100.00
53546;BME280;39432;51.902;10.844;2024-02-14T13:06:51;99628.06;;;11.93;100.00
53546;BME280;39432;51.902;10.844;2024-02-14T13:09:21;99638.88;;;12.15;100.00
53546;BME280;39432;51.902;10.844;2024-02-14T13:11:51;99630.31;;;12.06;100.00
53546;BME280;39432;51.902;10.844;2024-02-14T13:14:21;99636.38;;;12.13;100.00